sensor_id;sensor_type;location;lat;lon;timestamp;P1;durP1;ratioP1;P2;durP2;ratioP2
7969;SDS011;4030;52.362;9.206;2023-05-14T00:00:31;3.33;;;2.75;;
7969;SDS011;4030;52.362;9.206;2023-05-14T00:02:57;3.67;;;2.85;;
7969;SDS011;4030;52.362;9.206;2023-05-14T00:05:23;3.80;;;3.00;;
7969;SDS011;4030;52.362;9.206;2023-05-14T00:07:49;3.60;;;2.90;;
7969;SDS011;4030;52.362;9.206;2023-05-14T00:10:15;2.88;;;2.67;;
7969;SDS011;4030;52.362;9.206;2023-05-14T00:12:43;3.58;;;2.85;;
7969;SDS011;4030;52.362;9.206;2023-05-14T00:15:08;3.85;;;2.42;;
7969;SDS011;4030;52.362;9.206;2023-05-14T00:17:35;4.40;;;2.92;;
7969;SDS011;4030;52.362;9.206;2023-05-14T00:20:01;4.85;;;2.80;;
7969;SDS011;4030;52.362;9.206;2023-05-14T00:22:31;3.45;;;2.72;;
7969;SDS011;4030;52.362;9.206;2023-05-14T00:24:57;3.88;;;2.90;;
7969;SDS011;4030;52.362;9.206;2023-05-14T00:27:23;3.03;;;2.35;;
7969;SDS011;4030;52.362;9.206;2023-05-14T00:29:49;2.85;;;2.55;;
7969;SDS011;4030;52.362;9.206;2023-05-14T00:32:15;3.00;;;2.55;;
7969;SDS011;4030;52.362;9.206;2023-05-14T00:34:42;4.03;;;2.95;;
7969;SDS011;4030;52.362;9.206;2023-05-14T00:37:08;3.05;;;2.42;;
7969;SDS011;4030;52.362;9.206;2023-05-14T00:39:34;6.82;;;3.03;;
7969;SDS011;4030;52.362;9.206;2023-05-14T00:42:00;3.17;;;2.60;;
7969;SDS011;4030;52.362;9.206;2023-05-14T00:44:26;3.95;;;2.92;;
7969;SDS011;4030;52.362;9.206;2023-05-14T00:46:52;3.97;;;2.92;;
7969;SDS011;4030;52.362;9.206;2023-05-14T00:49:18;3.38;;;2.80;;
7969;SDS011;4030;52.362;9.206;2023-05-14T00:51:45;3.75;;;2.95;;
7969;SDS011;4030;52.362;9.206;2023-05-14T00:54:14;3.85;;;2.95;;
7969;SDS011;4030;52.362;9.206;2023-05-14T00:56:42;3.47;;;2.88;;
7969;SDS011;4030;52.362;9.206;2023-05-14T00:59:09;3.10;;;2.80;;
7969;SDS011;4030;52.362;9.206;2023-05-14T01:01:35;3.20;;;2.63;;
7969;SDS011;4030;52.362;9.206;2023-05-14T01:04:01;3.30;;;3.00;;
7969;SDS011;4030;52.362;9.206;2023-05-14T01:09:41;3.42;;;2.90;;
7969;SDS011;4030;52.362;9.206;2023-05-14T01:12:18;3.88;;;2.75;;
7969;SDS011;4030;52.362;9.206;2023-05-14T01:15:25;4.07;;;2.85;;
7969;SDS011;4030;52.362;9.206;2023-05-14T01:17:55;2.83;;;2.60;;
7969;SDS011;4030;52.362;9.206;2023-05-14T01:20:29;3.40;;;3.00;;
7969;SDS011;4030;52.362;9.206;2023-05-14T01:22:55;4.00;;;2.97;;
7969;SDS011;4030;52.362;9.206;2023-05-14T01:25:21;3.97;;;3.05;;
7969;SDS011;4030;52.362;9.206;2023-05-14T01:31:00;5.25;;;3.08;;
7969;SDS011;4030;52.362;9.206;2023-05-14T01:33:32;3.63;;;3.08;;
7969;SDS011;4030;52.362;9.206;2023-05-14T01:35:59;3.72;;;3.20;;
7969;SDS011;4030;52.362;9.206;2023-05-14T01:38:26;3.55;;;2.85;;
7969;SDS011;4030;52.362;9.206;2023-05-14T01:40:55;3.58;;;2.90;;
7969;SDS011;4030;52.362;9.206;2023-05-14T01:43:22;3.95;;;3.28;;
7969;SDS011;4030;52.362;9.206;2023-05-14T01:45:48;3.30;;;2.90;;
7969;SDS011;4030;52.362;9.206;2023-05-14T01:48:13;4.60;;;3.15;;
7969;SDS011;4030;52.362;9.206;2023-05-14T01:50:40;4.63;;;3.00;;
7969;SDS011;4030;52.362;9.206;2023-05-14T01:53:06;4.35;;;3.40;;
7969;SDS011;4030;52.362;9.206;2023-05-14T01:55:32;4.05;;;3.08;;
7969;SDS011;4030;52.362;9.206;2023-05-14T01:57:58;4.25;;;3.08;;
7969;SDS011;4030;52.362;9.206;2023-05-14T02:00:24;5.03;;;2.92;;
7969;SDS011;4030;52.362;9.206;2023-05-14T02:02:50;3.40;;;2.70;;
7969;SDS011;4030;52.362;9.206;2023-05-14T02:05:16;3.70;;;3.30;;
7969;SDS011;4030;52.362;9.206;2023-05-14T02:07:42;3.50;;;3.20;;
7969;SDS011;4030;52.362;9.206;2023-05-14T02:10:08;5.53;;;3.15;;
7969;SDS011;4030;52.362;9.206;2023-05-14T02:12:35;3.70;;;3.10;;
7969;SDS011;4030;52.362;9.206;2023-05-14T02:15:01;4.20;;;3.00;;
7969;SDS011;4030;52.362;9.206;2023-05-14T02:17:28;5.03;;;3.28;;
7969;SDS011;4030;52.362;9.206;2023-05-14T02:19:53;3.72;;;3.00;;
7969;SDS011;4030;52.362;9.206;2023-05-14T02:22:19;3.75;;;2.85;;
7969;SDS011;4030;52.362;9.206;2023-05-14T02:24:45;3.50;;;2.95;;
7969;SDS011;4030;52.362;9.206;2023-05-14T02:27:10;4.25;;;3.25;;
7969;SDS011;4030;52.362;9.206;2023-05-14T02:29:37;4.20;;;3.05;;
7969;SDS011;4030;52.362;9.206;2023-05-14T02:32:03;3.70;;;3.10;;
7969;SDS011;4030;52.362;9.206;2023-05-14T02:34:29;3.42;;;3.05;;
7969;SDS011;4030;52.362;9.206;2023-05-14T02:36:55;3.45;;;3.15;;
7969;SDS011;4030;52.362;9.206;2023-05-14T02:39:21;3.15;;;2.85;;
7969;SDS011;4030;52.362;9.206;2023-05-14T02:41:47;6.85;;;3.17;;
7969;SDS011;4030;52.362;9.206;2023-05-14T02:44:13;5.30;;;3.15;;
7969;SDS011;4030;52.362;9.206;2023-05-14T02:46:39;4.22;;;2.92;;
7969;SDS011;4030;52.362;9.206;2023-05-14T02:49:05;4.20;;;3.20;;
7969;SDS011;4030;52.362;9.206;2023-05-14T02:51:31;3.78;;;3.10;;
7969;SDS011;4030;52.362;9.206;2023-05-14T02:53:57;3.40;;;3.10;;
7969;SDS011;4030;52.362;9.206;2023-05-14T02:56:23;3.20;;;2.90;;
7969;SDS011;4030;52.362;9.206;2023-05-14T02:58:50;3.72;;;3.10;;
7969;SDS011;4030;52.362;9.206;2023-05-14T03:01:16;3.17;;;2.90;;
7969;SDS011;4030;52.362;9.206;2023-05-14T03:03:42;3.90;;;3.00;;
7969;SDS011;4030;52.362;9.206;2023-05-14T03:06:08;5.30;;;3.30;;
7969;SDS011;4030;52.362;9.206;2023-05-14T03:08:34;3.85;;;3.20;;
7969;SDS011;4030;52.362;9.206;2023-05-14T03:11:00;4.60;;;3.25;;
7969;SDS011;4030;52.362;9.206;2023-05-14T03:13:26;4.80;;;3.33;;
7969;SDS011;4030;52.362;9.206;2023-05-14T03:15:52;4.18;;;3.17;;
7969;SDS011;4030;52.362;9.206;2023-05-14T03:18:18;3.70;;;3.17;;
7969;SDS011;4030;52.362;9.206;2023-05-14T03:20:45;3.60;;;3.30;;
7969;SDS011;4030;52.362;9.206;2023-05-14T03:23:10;4.13;;;3.08;;
7969;SDS011;4030;52.362;9.206;2023-05-14T03:25:36;3.67;;;3.15;;
7969;SDS011;4030;52.362;9.206;2023-05-14T03:28:02;3.40;;;3.10;;
7969;SDS011;4030;52.362;9.206;2023-05-14T03:30:28;5.47;;;3.55;;
7969;SDS011;4030;52.362;9.206;2023-05-14T03:32:54;4.90;;;3.33;;
7969;SDS011;4030;52.362;9.206;2023-05-14T03:35:20;3.95;;;3.50;;
7969;SDS011;4030;52.362;9.206;2023-05-14T03:37:46;4.45;;;3.28;;
7969;SDS011;4030;52.362;9.206;2023-05-14T03:40:13;4.28;;;3.50;;
7969;SDS011;4030;52.362;9.206;2023-05-14T03:42:39;3.63;;;3.08;;
7969;SDS011;4030;52.362;9.206;2023-05-14T03:45:05;5.43;;;3.40;;
7969;SDS011;4030;52.362;9.206;2023-05-14T03:47:31;4.07;;;3.38;;
7969;SDS011;4030;52.362;9.206;2023-05-14T03:49:57;3.60;;;3.30;;
7969;SDS011;4030;52.362;9.206;2023-05-14T03:52:23;4.82;;;3.50;;
7969;SDS011;4030;52.362;9.206;2023-05-14T03:54:49;4.43;;;3.10;;
7969;SDS011;4030;52.362;9.206;2023-05-14T03:57:15;3.95;;;3.47;;
7969;SDS011;4030;52.362;9.206;2023-05-14T03:59:41;4.05;;;3.30;;
7969;SDS011;4030;52.362;9.206;2023-05-14T04:02:07;4.40;;;3.22;;
7969;SDS011;4030;52.362;9.206;2023-05-14T04:04:32;3.70;;;3.30;;
7969;SDS011;4030;52.362;9.206;2023-05-14T04:06:58;3.20;;;2.90;;
7969;SDS011;4030;52.362;9.206;2023-05-14T04:09:24;3.50;;;3.20;;
7969;SDS011;4030;52.362;9.206;2023-05-14T04:11:49;5.20;;;3.67;;
7969;SDS011;4030;52.362;9.206;2023-05-14T04:14:15;3.97;;;3.10;;
7969;SDS011;4030;52.362;9.206;2023-05-14T04:16:41;4.40;;;3.40;;
7969;SDS011;4030;52.362;9.206;2023-05-14T04:19:08;4.32;;;3.10;;
7969;SDS011;4030;52.362;9.206;2023-05-14T04:21:34;3.85;;;3.13;;
7969;SDS011;4030;52.362;9.206;2023-05-14T04:24:00;4.80;;;3.03;;
7969;SDS011;4030;52.362;9.206;2023-05-14T04:26:25;4.35;;;3.00;;
7969;SDS011;4030;52.362;9.206;2023-05-14T04:28:51;4.40;;;3.17;;
7969;SDS011;4030;52.362;9.206;2023-05-14T04:31:16;4.78;;;3.35;;
7969;SDS011;4030;52.362;9.206;2023-05-14T04:33:42;4.25;;;2.90;;
7969;SDS011;4030;52.362;9.206;2023-05-14T04:36:08;3.22;;;2.90;;
7969;SDS011;4030;52.362;9.206;2023-05-14T04:38:34;4.45;;;3.00;;
7969;SDS011;4030;52.362;9.206;2023-05-14T04:41:00;4.40;;;3.10;;
7969;SDS011;4030;52.362;9.206;2023-05-14T04:43:26;3.72;;;2.95;;
7969;SDS011;4030;52.362;9.206;2023-05-14T04:45:52;3.80;;;3.20;;
7969;SDS011;4030;52.362;9.206;2023-05-14T04:48:18;4.15;;;2.97;;
7969;SDS011;4030;52.362;9.206;2023-05-14T04:50:43;4.07;;;3.38;;
7969;SDS011;4030;52.362;9.206;2023-05-14T04:53:09;3.67;;;2.80;;
7969;SDS011;4030;52.362;9.206;2023-05-14T04:55:35;3.40;;;3.10;;
7969;SDS011;4030;52.362;9.206;2023-05-14T04:58:01;3.85;;;3.10;;
7969;SDS011;4030;52.362;9.206;2023-05-14T05:00:27;3.10;;;2.78;;
7969;SDS011;4030;52.362;9.206;2023-05-14T05:02:53;3.90;;;3.10;;
7969;SDS011;4030;52.362;9.206;2023-05-14T05:05:19;3.30;;;3.00;;
7969;SDS011;4030;52.362;9.206;2023-05-14T05:07:45;3.67;;;3.28;;
7969;SDS011;4030;52.362;9.206;2023-05-14T05:10:10;3.70;;;2.80;;
7969;SDS011;4030;52.362;9.206;2023-05-14T05:12:37;3.65;;;3.03;;
7969;SDS011;4030;52.362;9.206;2023-05-14T05:15:03;4.57;;;3.00;;
7969;SDS011;4030;52.362;9.206;2023-05-14T05:17:29;3.45;;;2.90;;
7969;SDS011;4030;52.362;9.206;2023-05-14T05:19:55;3.47;;;3.00;;
7969;SDS011;4030;52.362;9.206;2023-05-14T05:22:21;4.95;;;3.13;;
7969;SDS011;4030;52.362;9.206;2023-05-14T05:24:47;3.78;;;3.28;;
7969;SDS011;4030;52.362;9.206;2023-05-14T05:27:13;3.00;;;2.70;;
7969;SDS011;4030;52.362;9.206;2023-05-14T05:29:39;3.17;;;2.88;;
7969;SDS011;4030;52.362;9.206;2023-05-14T05:32:05;3.22;;;2.92;;
7969;SDS011;4030;52.362;9.206;2023-05-14T05:34:31;3.15;;;2.70;;
7969;SDS011;4030;52.362;9.206;2023-05-14T05:36:57;3.33;;;3.00;;
7969;SDS011;4030;52.362;9.206;2023-05-14T05:39:22;4.05;;;3.00;;
7969;SDS011;4030;52.362;9.206;2023-05-14T05:41:48;4.30;;;3.15;;
7969;SDS011;4030;52.362;9.206;2023-05-14T05:44:14;3.22;;;2.92;;
7969;SDS011;4030;52.362;9.206;2023-05-14T05:46:39;3.00;;;2.70;;
7969;SDS011;4030;52.362;9.206;2023-05-14T05:49:05;6.55;;;3.15;;
7969;SDS011;4030;52.362;9.206;2023-05-14T05:51:31;5.43;;;2.80;;
7969;SDS011;4030;52.362;9.206;2023-05-14T05:53:57;4.07;;;3.30;;
7969;SDS011;4030;52.362;9.206;2023-05-14T05:56:22;3.20;;;2.90;;
7969;SDS011;4030;52.362;9.206;2023-05-14T05:58:48;3.13;;;2.85;;
7969;SDS011;4030;52.362;9.206;2023-05-14T06:01:14;3.30;;;3.00;;
7969;SDS011;4030;52.362;9.206;2023-05-14T06:03:39;3.22;;;2.90;;
7969;SDS011;4030;52.362;9.206;2023-05-14T06:06:05;3.83;;;3.20;;
7969;SDS011;4030;52.362;9.206;2023-05-14T06:08:31;3.58;;;3.17;;
7969;SDS011;4030;52.362;9.206;2023-05-14T06:10:56;3.95;;;2.90;;
7969;SDS011;4030;52.362;9.206;2023-05-14T06:13:22;3.63;;;2.88;;
7969;SDS011;4030;52.362;9.206;2023-05-14T06:15:48;5.15;;;3.00;;
7969;SDS011;4030;52.362;9.206;2023-05-14T06:18:13;3.80;;;3.20;;
7969;SDS011;4030;52.362;9.206;2023-05-14T06:20:39;3.53;;;3.05;;
7969;SDS011;4030;52.362;9.206;2023-05-14T06:23:05;3.40;;;2.97;;
7969;SDS011;4030;52.362;9.206;2023-05-14T06:25:31;4.43;;;3.20;;
7969;SDS011;4030;52.362;9.206;2023-05-14T06:27:58;4.35;;;3.10;;
7969;SDS011;4030;52.362;9.206;2023-05-14T06:30:23;5.03;;;3.08;;
7969;SDS011;4030;52.362;9.206;2023-05-14T06:32:49;4.03;;;3.03;;
7969;SDS011;4030;52.362;9.206;2023-05-14T06:35:15;4.07;;;3.08;;
7969;SDS011;4030;52.362;9.206;2023-05-14T06:37:42;3.53;;;3.20;;
7969;SDS011;4030;52.362;9.206;2023-05-14T06:40:09;4.47;;;3.10;;
7969;SDS011;4030;52.362;9.206;2023-05-14T06:42:36;3.50;;;3.20;;
7969;SDS011;4030;52.362;9.206;2023-05-14T06:45:01;3.38;;;3.08;;
7969;SDS011;4030;52.362;9.206;2023-05-14T06:47:28;3.70;;;3.40;;
7969;SDS011;4030;52.362;9.206;2023-05-14T06:49:54;4.18;;;3.13;;
7969;SDS011;4030;52.362;9.206;2023-05-14T06:52:22;3.92;;;3.10;;
7969;SDS011;4030;52.362;9.206;2023-05-14T06:54:48;3.47;;;2.83;;
7969;SDS011;4030;52.362;9.206;2023-05-14T06:57:14;3.83;;;2.70;;
7969;SDS011;4030;52.362;9.206;2023-05-14T06:59:39;4.80;;;2.97;;
7969;SDS011;4030;52.362;9.206;2023-05-14T07:02:05;3.75;;;3.05;;
7969;SDS011;4030;52.362;9.206;2023-05-14T07:04:31;3.35;;;3.05;;
7969;SDS011;4030;52.362;9.206;2023-05-14T07:06:57;3.88;;;3.15;;
7969;SDS011;4030;52.362;9.206;2023-05-14T07:09:22;3.80;;;3.40;;
7969;SDS011;4030;52.362;9.206;2023-05-14T07:11:48;4.30;;;3.28;;
7969;SDS011;4030;52.362;9.206;2023-05-14T07:14:14;4.30;;;3.10;;
7969;SDS011;4030;52.362;9.206;2023-05-14T07:16:40;4.30;;;3.30;;
7969;SDS011;4030;52.362;9.206;2023-05-14T07:19:06;4.57;;;3.50;;
7969;SDS011;4030;52.362;9.206;2023-05-14T07:21:32;5.15;;;3.80;;
7969;SDS011;4030;52.362;9.206;2023-05-14T07:23:59;4.60;;;3.40;;
7969;SDS011;4030;52.362;9.206;2023-05-14T07:26:24;5.68;;;4.00;;
7969;SDS011;4030;52.362;9.206;2023-05-14T07:28:50;4.70;;;3.65;;
7969;SDS011;4030;52.362;9.206;2023-05-14T07:31:16;6.63;;;4.65;;
7969;SDS011;4030;52.362;9.206;2023-05-14T07:33:41;9.93;;;5.45;;
7969;SDS011;4030;52.362;9.206;2023-05-14T07:36:07;9.00;;;5.75;;
7969;SDS011;4030;52.362;9.206;2023-05-14T07:38:33;10.32;;;6.18;;
7969;SDS011;4030;52.362;9.206;2023-05-14T07:40:59;8.15;;;5.00;;
7969;SDS011;4030;52.362;9.206;2023-05-14T07:43:25;10.20;;;5.50;;
7969;SDS011;4030;52.362;9.206;2023-05-14T07:45:50;7.43;;;4.65;;
7969;SDS011;4030;52.362;9.206;2023-05-14T07:48:16;10.57;;;5.50;;
7969;SDS011;4030;52.362;9.206;2023-05-14T07:50:42;9.10;;;5.10;;
7969;SDS011;4030;52.362;9.206;2023-05-14T07:53:07;10.20;;;5.53;;
7969;SDS011;4030;52.362;9.206;2023-05-14T07:55:33;5.05;;;3.88;;
7969;SDS011;4030;52.362;9.206;2023-05-14T07:57:59;6.30;;;3.97;;
7969;SDS011;4030;52.362;9.206;2023-05-14T08:00:24;5.10;;;3.78;;
7969;SDS011;4030;52.362;9.206;2023-05-14T08:02:50;6.13;;;3.97;;
7969;SDS011;4030;52.362;9.206;2023-05-14T08:05:16;4.07;;;3.10;;
7969;SDS011;4030;52.362;9.206;2023-05-14T08:07:43;5.70;;;4.07;;
7969;SDS011;4030;52.362;9.206;2023-05-14T08:10:09;3.50;;;3.20;;
7969;SDS011;4030;52.362;9.206;2023-05-14T08:12:35;3.90;;;3.38;;
7969;SDS011;4030;52.362;9.206;2023-05-14T08:15:00;5.88;;;3.47;;
7969;SDS011;4030;52.362;9.206;2023-05-14T08:17:27;4.25;;;3.42;;
7969;SDS011;4030;52.362;9.206;2023-05-14T08:19:52;4.38;;;3.53;;
7969;SDS011;4030;52.362;9.206;2023-05-14T08:22:18;4.68;;;3.10;;
7969;SDS011;4030;52.362;9.206;2023-05-14T08:24:44;8.27;;;4.70;;
7969;SDS011;4030;52.362;9.206;2023-05-14T08:27:09;7.90;;;4.68;;
7969;SDS011;4030;52.362;9.206;2023-05-14T08:29:35;5.78;;;4.10;;
7969;SDS011;4030;52.362;9.206;2023-05-14T08:32:01;6.72;;;4.32;;
7969;SDS011;4030;52.362;9.206;2023-05-14T08:34:26;6.35;;;4.03;;
7969;SDS011;4030;52.362;9.206;2023-05-14T08:36:52;5.20;;;3.60;;
7969;SDS011;4030;52.362;9.206;2023-05-14T08:39:18;5.18;;;3.80;;
7969;SDS011;4030;52.362;9.206;2023-05-14T08:41:44;5.22;;;3.30;;
7969;SDS011;4030;52.362;9.206;2023-05-14T08:44:13;6.47;;;3.85;;
7969;SDS011;4030;52.362;9.206;2023-05-14T08:46:44;5.63;;;3.10;;
7969;SDS011;4030;52.362;9.206;2023-05-14T08:52:07;3.25;;;2.50;;
7969;SDS011;4030;52.362;9.206;2023-05-14T08:54:34;2.95;;;2.25;;
7969;SDS011;4030;52.362;9.206;2023-05-14T08:56:59;2.65;;;2.22;;
7969;SDS011;4030;52.362;9.206;2023-05-14T08:59:27;2.53;;;2.20;;
7969;SDS011;4030;52.362;9.206;2023-05-14T09:01:53;2.20;;;2.00;;
7969;SDS011;4030;52.362;9.206;2023-05-14T09:04:21;3.55;;;2.20;;
7969;SDS011;4030;52.362;9.206;2023-05-14T09:06:49;2.55;;;2.28;;
7969;SDS011;4030;52.362;9.206;2023-05-14T09:09:17;2.55;;;2.08;;
7969;SDS011;4030;52.362;9.206;2023-05-14T09:11:46;2.38;;;1.90;;
7969;SDS011;4030;52.362;9.206;2023-05-14T09:14:13;2.30;;;2.00;;
7969;SDS011;4030;52.362;9.206;2023-05-14T09:16:40;2.38;;;1.98;;
7969;SDS011;4030;52.362;9.206;2023-05-14T09:19:08;2.67;;;2.00;;
7969;SDS011;4030;52.362;9.206;2023-05-14T09:21:35;2.33;;;1.80;;
7969;SDS011;4030;52.362;9.206;2023-05-14T09:24:01;2.35;;;1.95;;
7969;SDS011;4030;52.362;9.206;2023-05-14T09:26:30;2.17;;;1.90;;
7969;SDS011;4030;52.362;9.206;2023-05-14T09:28:57;2.25;;;1.67;;
7969;SDS011;4030;52.362;9.206;2023-05-14T09:31:28;2.95;;;1.90;;
7969;SDS011;4030;52.362;9.206;2023-05-14T09:33:55;2.80;;;2.05;;
7969;SDS011;4030;52.362;9.206;2023-05-14T09:36:22;3.38;;;2.08;;
7969;SDS011;4030;52.362;9.206;2023-05-14T09:38:49;2.50;;;1.60;;
7969;SDS011;4030;52.362;9.206;2023-05-14T09:41:15;3.05;;;1.80;;
7969;SDS011;4030;52.362;9.206;2023-05-14T09:43:41;1.80;;;1.70;;
7969;SDS011;4030;52.362;9.206;2023-05-14T09:46:07;2.85;;;1.90;;
7969;SDS011;4030;52.362;9.206;2023-05-14T09:48:33;2.60;;;1.73;;
7969;SDS011;4030;52.362;9.206;2023-05-14T09:50:59;2.03;;;1.80;;
7969;SDS011;4030;52.362;9.206;2023-05-14T09:53:25;1.70;;;1.60;;
7969;SDS011;4030;52.362;9.206;2023-05-14T09:55:51;2.10;;;1.60;;
7969;SDS011;4030;52.362;9.206;2023-05-14T09:58:16;1.98;;;1.77;;
7969;SDS011;4030;52.362;9.206;2023-05-14T10:00:43;1.90;;;1.58;;
7969;SDS011;4030;52.362;9.206;2023-05-14T10:03:12;3.00;;;1.95;;
7969;SDS011;4030;52.362;9.206;2023-05-14T10:05:39;2.40;;;1.90;;
7969;SDS011;4030;52.362;9.206;2023-05-14T10:08:13;2.20;;;1.80;;
7969;SDS011;4030;52.362;9.206;2023-05-14T10:10:55;3.08;;;1.80;;
7969;SDS011;4030;52.362;9.206;2023-05-14T10:13:25;2.20;;;1.88;;
7969;SDS011;4030;52.362;9.206;2023-05-14T10:19:07;2.20;;;1.83;;
7969;SDS011;4030;52.362;9.206;2023-05-14T10:21:35;1.92;;;1.73;;
7969;SDS011;4030;52.362;9.206;2023-05-14T10:24:03;2.03;;;1.70;;
7969;SDS011;4030;52.362;9.206;2023-05-14T10:26:31;2.08;;;1.55;;
7969;SDS011;4030;52.362;9.206;2023-05-14T10:29:04;2.00;;;1.80;;
7969;SDS011;4030;52.362;9.206;2023-05-14T10:32:31;2.30;;;1.90;;
7969;SDS011;4030;52.362;9.206;2023-05-14T10:34:31;1.98;;;1.60;;
7969;SDS011;4030;52.362;9.206;2023-05-14T10:36:59;2.10;;;1.90;;
7969;SDS011;4030;52.362;9.206;2023-05-14T10:42:18;1.70;;;1.60;;
7969;SDS011;4030;52.362;9.206;2023-05-14T10:47:23;2.55;;;1.85;;
7969;SDS011;4030;52.362;9.206;2023-05-14T10:49:52;2.20;;;1.67;;
7969;SDS011;4030;52.362;9.206;2023-05-14T10:52:20;2.22;;;1.70;;
7969;SDS011;4030;52.362;9.206;2023-05-14T10:54:47;2.05;;;1.73;;
7969;SDS011;4030;52.362;9.206;2023-05-14T10:57:17;2.63;;;1.90;;
7969;SDS011;4030;52.362;9.206;2023-05-14T10:59:48;2.08;;;1.60;;
7969;SDS011;4030;52.362;9.206;2023-05-14T11:02:25;1.83;;;1.60;;
7969;SDS011;4030;52.362;9.206;2023-05-14T11:04:59;1.88;;;1.60;;
7969;SDS011;4030;52.362;9.206;2023-05-14T11:07:35;1.70;;;1.60;;
7969;SDS011;4030;52.362;9.206;2023-05-14T11:10:09;3.55;;;2.17;;
7969;SDS011;4030;52.362;9.206;2023-05-14T11:12:38;2.42;;;1.95;;
7969;SDS011;4030;52.362;9.206;2023-05-14T11:15:13;2.80;;;1.77;;
7969;SDS011;4030;52.362;9.206;2023-05-14T11:17:42;2.97;;;1.95;;
7969;SDS011;4030;52.362;9.206;2023-05-14T11:20:09;2.50;;;1.80;;
7969;SDS011;4030;52.362;9.206;2023-05-14T11:22:37;2.58;;;2.00;;
7969;SDS011;4030;52.362;9.206;2023-05-14T11:25:04;2.08;;;1.63;;
7969;SDS011;4030;52.362;9.206;2023-05-14T11:27:35;2.10;;;1.90;;
7969;SDS011;4030;52.362;9.206;2023-05-14T11:30:03;2.13;;;1.60;;
7969;SDS011;4030;52.362;9.206;2023-05-14T11:32:32;2.85;;;1.70;;
7969;SDS011;4030;52.362;9.206;2023-05-14T11:34:58;2.13;;;1.88;;
7969;SDS011;4030;52.362;9.206;2023-05-14T11:37:24;3.30;;;1.75;;
7969;SDS011;4030;52.362;9.206;2023-05-14T11:39:53;1.92;;;1.70;;
7969;SDS011;4030;52.362;9.206;2023-05-14T11:42:20;2.50;;;1.70;;
7969;SDS011;4030;52.362;9.206;2023-05-14T11:44:48;2.10;;;1.88;;
7969;SDS011;4030;52.362;9.206;2023-05-14T11:47:16;2.22;;;1.70;;
7969;SDS011;4030;52.362;9.206;2023-05-14T11:49:44;2.90;;;1.95;;
7969;SDS011;4030;52.362;9.206;2023-05-14T11:52:10;2.65;;;1.83;;
7969;SDS011;4030;52.362;9.206;2023-05-14T11:54:38;2.72;;;1.88;;
7969;SDS011;4030;52.362;9.206;2023-05-14T11:57:07;2.20;;;1.73;;
7969;SDS011;4030;52.362;9.206;2023-05-14T11:59:40;2.22;;;1.85;;
7969;SDS011;4030;52.362;9.206;2023-05-14T12:02:10;2.08;;;1.70;;
7969;SDS011;4030;52.362;9.206;2023-05-14T12:04:38;3.70;;;1.80;;
7969;SDS011;4030;52.362;9.206;2023-05-14T12:07:06;1.65;;;1.55;;
7969;SDS011;4030;52.362;9.206;2023-05-14T12:09:39;2.85;;;1.63;;
7969;SDS011;4030;52.362;9.206;2023-05-14T12:12:13;2.72;;;1.70;;
7969;SDS011;4030;52.362;9.206;2023-05-14T12:14:44;2.17;;;1.70;;
7969;SDS011;4030;52.362;9.206;2023-05-14T12:17:11;2.53;;;1.77;;
7969;SDS011;4030;52.362;9.206;2023-05-14T12:19:46;2.00;;;1.58;;
7969;SDS011;4030;52.362;9.206;2023-05-14T12:22:14;2.05;;;1.70;;
7969;SDS011;4030;52.362;9.206;2023-05-14T12:24:43;1.85;;;1.63;;
7969;SDS011;4030;52.362;9.206;2023-05-14T12:27:21;2.78;;;1.80;;
7969;SDS011;4030;52.362;9.206;2023-05-14T12:29:58;2.80;;;1.95;;
7969;SDS011;4030;52.362;9.206;2023-05-14T12:32:26;1.88;;;1.70;;
7969;SDS011;4030;52.362;9.206;2023-05-14T12:34:51;2.20;;;1.75;;
7969;SDS011;4030;52.362;9.206;2023-05-14T12:37:17;3.03;;;1.90;;
7969;SDS011;4030;52.362;9.206;2023-05-14T12:39:43;3.75;;;1.90;;
7969;SDS011;4030;52.362;9.206;2023-05-14T12:42:09;1.98;;;1.77;;
7969;SDS011;4030;52.362;9.206;2023-05-14T12:44:34;2.63;;;2.00;;
7969;SDS011;4030;52.362;9.206;2023-05-14T12:47:00;2.15;;;1.70;;
7969;SDS011;4030;52.362;9.206;2023-05-14T12:49:26;3.08;;;2.10;;
7969;SDS011;4030;52.362;9.206;2023-05-14T12:51:52;3.00;;;1.85;;
7969;SDS011;4030;52.362;9.206;2023-05-14T12:54:17;1.92;;;1.55;;
7969;SDS011;4030;52.362;9.206;2023-05-14T12:56:43;2.05;;;1.85;;
7969;SDS011;4030;52.362;9.206;2023-05-14T12:59:09;3.85;;;1.80;;
7969;SDS011;4030;52.362;9.206;2023-05-14T13:01:34;2.78;;;1.90;;
7969;SDS011;4030;52.362;9.206;2023-05-14T13:04:02;2.47;;;2.03;;
7969;SDS011;4030;52.362;9.206;2023-05-14T13:06:28;3.03;;;2.10;;
7969;SDS011;4030;52.362;9.206;2023-05-14T13:08:55;1.77;;;1.67;;
7969;SDS011;4030;52.362;9.206;2023-05-14T13:11:23;2.20;;;2.00;;
7969;SDS011;4030;52.362;9.206;2023-05-14T13:13:51;3.72;;;1.88;;
7969;SDS011;4030;52.362;9.206;2023-05-14T13:16:16;2.08;;;1.88;;
7969;SDS011;4030;52.362;9.206;2023-05-14T13:18:42;2.95;;;2.00;;
7969;SDS011;4030;52.362;9.206;2023-05-14T13:21:07;2.63;;;2.00;;
7969;SDS011;4030;52.362;9.206;2023-05-14T13:23:33;3.13;;;1.92;;
7969;SDS011;4030;52.362;9.206;2023-05-14T13:25:59;2.60;;;1.92;;
7969;SDS011;4030;52.362;9.206;2023-05-14T13:28:24;3.28;;;2.00;;
7969;SDS011;4030;52.362;9.206;2023-05-14T13:31:08;2.50;;;1.90;;
7969;SDS011;4030;52.362;9.206;2023-05-14T13:33:39;2.33;;;2.05;;
7969;SDS011;4030;52.362;9.206;2023-05-14T13:36:07;2.90;;;1.83;;
7969;SDS011;4030;52.362;9.206;2023-05-14T13:38:34;4.22;;;2.10;;
7969;SDS011;4030;52.362;9.206;2023-05-14T13:40:59;2.53;;;1.73;;
7969;SDS011;4030;52.362;9.206;2023-05-14T13:43:28;2.72;;;1.98;;
7969;SDS011;4030;52.362;9.206;2023-05-14T13:45:58;2.67;;;2.08;;
7969;SDS011;4030;52.362;9.206;2023-05-14T13:48:25;2.30;;;1.95;;
7969;SDS011;4030;52.362;9.206;2023-05-14T13:50:51;3.72;;;1.90;;
7969;SDS011;4030;52.362;9.206;2023-05-14T13:53:21;2.35;;;1.73;;
7969;SDS011;4030;52.362;9.206;2023-05-14T13:55:48;1.77;;;1.63;;
7969;SDS011;4030;52.362;9.206;2023-05-14T13:58:15;2.88;;;2.10;;
7969;SDS011;4030;52.362;9.206;2023-05-14T14:00:40;2.40;;;2.10;;
7969;SDS011;4030;52.362;9.206;2023-05-14T14:03:06;2.50;;;1.77;;
7969;SDS011;4030;52.362;9.206;2023-05-14T14:05:33;2.60;;;1.90;;
7969;SDS011;4030;52.362;9.206;2023-05-14T14:07:59;2.63;;;1.90;;
7969;SDS011;4030;52.362;9.206;2023-05-14T14:10:25;2.70;;;1.85;;
7969;SDS011;4030;52.362;9.206;2023-05-14T14:12:51;1.70;;;1.50;;
7969;SDS011;4030;52.362;9.206;2023-05-14T14:15:17;2.17;;;1.98;;
7969;SDS011;4030;52.362;9.206;2023-05-14T14:17:43;2.78;;;1.80;;
7969;SDS011;4030;52.362;9.206;2023-05-14T14:20:08;2.03;;;1.80;;
7969;SDS011;4030;52.362;9.206;2023-05-14T14:22:35;1.80;;;1.70;;
7969;SDS011;4030;52.362;9.206;2023-05-14T14:25:01;2.00;;;1.70;;
7969;SDS011;4030;52.362;9.206;2023-05-14T14:27:27;1.95;;;1.75;;
7969;SDS011;4030;52.362;9.206;2023-05-14T14:29:55;2.17;;;1.98;;
7969;SDS011;4030;52.362;9.206;2023-05-14T14:32:20;2.15;;;1.90;;
7969;SDS011;4030;52.362;9.206;2023-05-14T14:34:46;2.00;;;1.80;;
7969;SDS011;4030;52.362;9.206;2023-05-14T14:37:12;2.25;;;1.90;;
7969;SDS011;4030;52.362;9.206;2023-05-14T14:39:37;2.47;;;1.67;;
7969;SDS011;4030;52.362;9.206;2023-05-14T14:42:03;1.80;;;1.60;;
7969;SDS011;4030;52.362;9.206;2023-05-14T14:44:29;2.13;;;1.65;;
7969;SDS011;4030;52.362;9.206;2023-05-14T14:46:55;1.95;;;1.75;;
7969;SDS011;4030;52.362;9.206;2023-05-14T14:49:21;2.80;;;2.00;;
7969;SDS011;4030;52.362;9.206;2023-05-14T14:51:47;2.33;;;1.70;;
7969;SDS011;4030;52.362;9.206;2023-05-14T14:54:13;1.90;;;1.70;;
7969;SDS011;4030;52.362;9.206;2023-05-14T14:56:38;2.13;;;1.77;;
7969;SDS011;4030;52.362;9.206;2023-05-14T14:59:04;2.72;;;1.90;;
7969;SDS011;4030;52.362;9.206;2023-05-14T15:01:30;2.33;;;1.85;;
7969;SDS011;4030;52.362;9.206;2023-05-14T15:03:55;2.13;;;1.90;;
7969;SDS011;4030;52.362;9.206;2023-05-14T15:06:21;1.70;;;1.45;;
7969;SDS011;4030;52.362;9.206;2023-05-14T15:08:47;2.30;;;1.70;;
7969;SDS011;4030;52.362;9.206;2023-05-14T15:11:13;2.28;;;1.70;;
7969;SDS011;4030;52.362;9.206;2023-05-14T15:13:38;2.35;;;1.83;;
7969;SDS011;4030;52.362;9.206;2023-05-14T15:16:05;2.60;;;2.00;;
7969;SDS011;4030;52.362;9.206;2023-05-14T15:18:31;3.25;;;1.90;;
7969;SDS011;4030;52.362;9.206;2023-05-14T15:20:57;1.75;;;1.65;;
7969;SDS011;4030;52.362;9.206;2023-05-14T15:23:22;2.75;;;2.00;;
7969;SDS011;4030;52.362;9.206;2023-05-14T15:25:48;2.20;;;1.83;;
7969;SDS011;4030;52.362;9.206;2023-05-14T15:28:14;2.63;;;1.77;;
7969;SDS011;4030;52.362;9.206;2023-05-14T15:30:40;3.15;;;1.77;;